Airfield :
LOGIN :

Register | Disclaimer

   EN    FR    IT 

 










Legend :    VFR   Marginal VFR   IFR   Intensive IFR   Very Intensive IFR
Visi :
Ceiling :
>= 8 km
>= 3000ft
5 to 8 km
1000 to 3000 ft
1500m to 5 km
500 to 1000 ft
800 to 1500m
200 to 500 ft
< 800m
< 200 ft
Symbols :   Thunderstorms  Fog  Heavy snow  Heavy precipitations  Wind > 20 kt
SIGMETs :     Misc.  Thunderstorms  Icing  Turbulence  Mountain Waves  Volcanic Ashes






- Airport Elevation : 52 ft
- IATA code : RNN


EKRN - Bornholm Ronne

CURRENT METAR :
  • 192220Z AUTO 22010KT 190V250 9999 FEW016/// BKN033/// 08/05 Q1019

EXPIRED METARs :
  • 192150Z AUTO 20011KT 9999 FEW017/// OVC033/// 08/05 Q1019
  • 192120Z AUTO 20014KT 9999 BKN017/// BKN033/// 08/05 Q1019
  • 192050Z AUTO 20012KT 170V230 9999 FEW017/// FEW035/// BKN150/// 08/06 Q1019
  • 192020Z AUTO 20013KT 9999 FEW017/// FEW027/// FEW035/// BKN160/// 08/05 Q1019
  • 191950Z AUTO 20015KT 9999 BKN027/// 08/05 Q1018

TAF AMD TAF EKRN
Valid from the 19 at 18:00 until the 19 at 23:00 UTC


191800Z 1918/1923 21013KT 9999 BKN020



MET'MAP, your aeronautical weather chart ! - Copyright ORBIFLY December 2007 - Disclaimer

ORBIFLY MET'MAP TEAM :

Programming & Development : Alexandra Zaïnal
Concept & Development : Baudouin d'Aumeries
Co-Development & Prog : Marc-Olivier Méhu
Technical & hardware support : Manuel Goepfert

Contact : metmap@orbifly.com




SOURCES & CREDITS :

   NOAA